createdAt,value
2019-03-29T08:38:40.460Z,244.00
2019-03-29T08:38:40.992Z,224.00
2019-03-29T08:38:41.499Z,223.00
2019-03-29T08:38:42.009Z,223.00
2019-03-29T08:38:42.516Z,222.00
2019-03-29T08:38:43.026Z,222.00
2019-03-29T08:38:43.547Z,223.00
2019-03-29T08:38:44.081Z,223.00
2019-03-29T08:38:44.596Z,223.00
2019-03-29T08:38:45.096Z,223.00
2019-03-29T08:38:45.601Z,223.00
2019-03-29T08:38:46.118Z,223.00
2019-03-29T08:38:46.643Z,223.00
2019-03-29T08:38:47.213Z,223.00
2019-03-29T08:38:47.743Z,224.00
2019-03-29T08:38:48.281Z,223.00
2019-03-29T08:38:48.795Z,223.00
2019-03-29T08:38:49.292Z,223.00
2019-03-29T08:38:49.800Z,223.00
2019-03-29T08:38:50.309Z,223.00
2019-03-29T08:38:50.823Z,223.00
2019-03-29T08:38:51.350Z,222.00
2019-03-29T08:38:51.867Z,223.00
2019-03-29T08:38:52.373Z,223.00
2019-03-29T08:38:52.889Z,223.00
2019-03-29T08:38:53.390Z,223.00
2019-03-29T08:38:53.888Z,223.00
2019-03-29T08:38:54.403Z,223.00
2019-03-29T08:38:54.913Z,222.00
2019-03-29T08:38:55.432Z,224.00
2019-03-29T08:38:55.944Z,222.00
2019-03-29T08:38:56.458Z,223.00
2019-03-29T08:38:56.969Z,223.00
2019-03-29T08:38:57.489Z,222.00
2019-03-29T08:38:58.093Z,222.00
2019-03-29T08:38:58.599Z,222.00
2019-03-29T08:38:59.089Z,222.00
2019-03-29T08:38:59.584Z,221.00
2019-03-29T08:39:00.091Z,223.00
2019-03-29T08:39:00.599Z,223.00
2019-03-29T08:39:01.105Z,223.00
2019-03-29T08:39:01.613Z,223.00
2019-03-29T08:39:02.115Z,222.00
2019-03-29T08:39:02.628Z,223.00
2019-03-29T08:39:03.130Z,223.00
2019-03-29T08:39:03.636Z,222.00
2019-03-29T08:39:04.136Z,221.00
2019-03-29T08:39:04.650Z,223.00
2019-03-29T08:39:05.167Z,225.00
2019-03-29T08:39:05.688Z,222.00
2019-03-29T08:39:06.189Z,222.00
2019-03-29T08:39:10.021Z,223.00
2019-03-29T08:39:10.890Z,222.00
2019-03-29T08:39:11.394Z,222.00
2019-03-29T08:39:11.906Z,222.00
2019-03-29T08:39:12.423Z,222.00
2019-03-29T08:39:27.036Z,222.00
2019-03-29T08:39:27.991Z,222.00
2019-03-29T08:39:28.086Z,222.00
2019-03-29T08:39:29.055Z,222.00
2019-03-29T08:39:29.562Z,222.00
2019-03-29T08:39:30.066Z,222.00
2019-03-29T08:39:30.571Z,222.00
2019-03-29T08:39:31.084Z,222.00
2019-03-29T08:39:31.593Z,221.00
2019-03-29T08:39:32.113Z,222.00
2019-03-29T08:39:32.613Z,221.00
2019-03-29T08:39:33.116Z,222.00
2019-03-29T08:39:33.614Z,222.00
2019-03-29T08:39:34.138Z,222.00
2019-03-29T08:39:34.653Z,224.00
2019-03-29T08:39:35.180Z,221.00
2019-03-29T08:39:35.691Z,222.00
2019-03-29T08:39:36.200Z,222.00
2019-03-29T08:39:36.710Z,222.00
2019-03-29T08:39:37.223Z,221.00
2019-03-29T08:39:37.729Z,222.00
2019-03-29T08:39:38.235Z,221.00
2019-03-29T08:39:38.754Z,221.00
2019-03-29T08:39:39.264Z,221.00
2019-03-29T08:39:39.782Z,221.00
2019-03-29T08:39:40.290Z,224.00
2019-03-29T08:39:40.814Z,221.00
2019-03-29T08:39:41.333Z,221.00
2019-03-29T08:39:41.846Z,221.00
2019-03-29T08:39:42.353Z,222.00
2019-03-29T08:39:42.862Z,222.00
2019-03-29T08:39:43.372Z,222.00
2019-03-29T08:39:43.886Z,222.00
2019-03-29T08:39:44.385Z,222.00
2019-03-29T08:39:44.905Z,222.00
2019-03-29T08:39:45.421Z,222.00
2019-03-29T08:39:45.935Z,217.00
2019-03-29T08:39:46.436Z,16.00
2019-03-29T08:39:46.940Z,16.00
2019-03-29T08:39:47.448Z,14.00
2019-03-29T08:39:47.960Z,12.00
2019-03-29T08:39:48.470Z,11.00
2019-03-29T08:39:48.980Z,10.00
2019-03-29T08:39:49.491Z,14.00
2019-03-29T08:39:49.989Z,10.00
2019-03-29T08:39:50.493Z,4.00
2019-03-29T08:39:51.001Z,4.00
2019-03-29T08:39:51.504Z,1.00
2019-03-29T08:39:52.005Z,2.00
2019-03-29T08:39:52.501Z,3.00
2019-03-29T08:39:56.316Z,2.00
2019-03-29T08:39:57.159Z,3.00
2019-03-29T08:39:58.414Z,3.00
2019-03-29T08:39:58.933Z,2.00
2019-03-29T08:39:59.438Z,3.00
2019-03-29T08:39:59.992Z,2.00
2019-03-29T08:40:00.493Z,3.00
2019-03-29T08:40:01.006Z,2.00
2019-03-29T08:40:01.543Z,2.00
2019-03-29T08:40:02.043Z,2.00
2019-03-29T08:40:02.550Z,2.00
2019-03-29T08:40:03.060Z,2.00
2019-03-29T08:40:03.564Z,2.00
2019-03-29T08:40:04.091Z,2.00
2019-03-29T08:40:04.611Z,2.00
2019-03-29T08:40:05.120Z,2.00
2019-03-29T08:40:05.634Z,2.00
2019-03-29T08:40:06.151Z,2.00
2019-03-29T08:40:06.657Z,3.00
2019-03-29T08:40:07.177Z,1.00
2019-03-29T08:40:07.682Z,2.00
2019-03-29T08:40:08.204Z,3.00
2019-03-29T08:40:08.711Z,2.00
2019-03-29T08:40:09.215Z,2.00
2019-03-29T08:40:09.735Z,1.00
2019-03-29T08:40:10.237Z,0.00
2019-03-29T08:40:10.750Z,2.00
2019-03-29T08:40:11.356Z,2.00
2019-03-29T08:40:11.868Z,2.00
2019-03-29T08:40:12.428Z,3.00
2019-03-29T08:40:12.929Z,2.00
2019-03-29T08:40:13.444Z,2.00
2019-03-29T08:40:13.942Z,3.00
2019-03-29T08:40:14.450Z,2.00
2019-03-29T08:40:14.946Z,3.00
2019-03-29T08:40:15.443Z,2.00
2019-03-29T08:40:15.942Z,2.00
2019-03-29T08:40:16.446Z,2.00
2019-03-29T08:40:16.966Z,3.00
2019-03-29T08:40:17.467Z,3.00
2019-03-29T08:40:17.960Z,2.00
2019-03-29T08:40:18.459Z,3.00
2019-03-29T08:40:18.953Z,2.00
2019-03-29T08:40:19.633Z,2.00
2019-03-29T08:40:20.160Z,3.00
2019-03-29T08:40:20.666Z,2.00
2019-03-29T08:40:21.160Z,1.00
2019-03-29T08:40:21.732Z,2.00
2019-03-29T08:40:22.293Z,2.00
2019-03-29T08:40:22.866Z,2.00
2019-03-29T08:40:23.444Z,4.00
2019-03-29T08:40:23.944Z,2.00
2019-03-29T08:40:24.436Z,3.00
2019-03-29T08:40:24.981Z,2.00
2019-03-29T08:40:25.570Z,2.00
2019-03-29T08:40:26.283Z,3.00
2019-03-29T08:40:26.882Z,2.00
2019-03-29T08:40:27.428Z,4.00
2019-03-29T08:40:27.924Z,4.00
2019-03-29T08:40:28.417Z,2.00
2019-03-29T08:40:28.933Z,2.00
2019-03-29T08:40:29.451Z,2.00
2019-03-29T08:40:29.955Z,2.00
2019-03-29T08:40:30.475Z,0.00
2019-03-29T08:40:30.971Z,2.00
2019-03-29T08:40:31.466Z,2.00
2019-03-29T08:40:31.963Z,3.00
2019-03-29T08:40:32.468Z,3.00
2019-03-29T08:40:32.975Z,2.00
2019-03-29T08:40:33.474Z,1.00
2019-03-29T08:40:33.981Z,2.00
2019-03-29T08:40:34.482Z,2.00
2019-03-29T08:40:34.984Z,2.00
2019-03-29T08:40:35.510Z,2.00
2019-03-29T08:40:36.019Z,2.00
2019-03-29T08:40:36.523Z,2.00
2019-03-29T08:40:37.030Z,2.00
2019-03-29T08:40:37.530Z,2.00
2019-03-29T08:40:38.028Z,2.00
2019-03-29T08:40:38.530Z,2.00
2019-03-29T08:40:39.046Z,4.00
2019-03-29T08:40:39.545Z,3.00
2019-03-29T08:40:40.051Z,2.00
2019-03-29T08:40:40.560Z,2.00
2019-03-29T08:40:41.059Z,4.00
2019-03-29T08:40:44.938Z,1.00
2019-03-29T08:40:45.863Z,2.00
2019-03-29T08:40:46.382Z,2.00
2019-03-29T08:40:46.902Z,2.00
2019-03-29T08:40:47.414Z,2.00
2019-03-29T08:40:47.914Z,3.00
2019-03-29T08:40:48.440Z,3.00
2019-03-29T08:40:48.946Z,1.00
2019-03-29T08:40:49.452Z,1.00
2019-03-29T08:40:49.941Z,2.00
2019-03-29T08:40:50.451Z,1.00
2019-03-29T08:40:50.958Z,2.00
2019-03-29T08:40:51.470Z,3.00
2019-03-29T08:40:51.988Z,2.00
2019-03-29T08:40:52.482Z,2.00
2019-03-29T08:40:52.980Z,1.00
2019-03-29T08:40:53.482Z,2.00
2019-03-29T08:40:53.994Z,1.00
2019-03-29T08:40:54.490Z,0.00
2019-03-29T08:40:54.989Z,2.00
2019-03-29T08:40:55.482Z,2.00
2019-03-29T08:40:55.981Z,2.00
2019-03-29T08:40:56.492Z,2.00
2019-03-29T08:40:57.003Z,2.00
2019-03-29T08:40:57.581Z,2.00
2019-03-29T08:40:58.157Z,2.00
2019-03-29T08:40:58.714Z,2.00
2019-03-29T08:40:59.261Z,233.00
2019-03-29T08:40:59.808Z,229.00
2019-03-29T08:41:00.361Z,224.00
2019-03-29T08:41:00.862Z,224.00
2019-03-29T08:41:01.387Z,224.00
2019-03-29T08:41:01.919Z,223.00
2019-03-29T08:41:02.490Z,223.00
2019-03-29T08:41:03.048Z,223.00
2019-03-29T08:41:03.565Z,223.00
2019-03-29T08:41:04.077Z,223.00
2019-03-29T08:41:04.566Z,223.00
2019-03-29T08:41:05.063Z,223.00
2019-03-29T08:41:05.567Z,223.00
2019-03-29T08:41:06.061Z,222.00
2019-03-29T08:41:06.563Z,221.00
2019-03-29T08:41:07.062Z,223.00
2019-03-29T08:41:07.572Z,222.00
2019-03-29T08:41:08.074Z,223.00
2019-03-29T08:41:08.577Z,224.00
2019-03-29T08:41:09.080Z,223.00
2019-03-29T08:41:09.588Z,223.00
2019-03-29T08:41:10.081Z,223.00
2019-03-29T08:41:10.568Z,224.00
2019-03-29T08:41:11.075Z,222.00
2019-03-29T08:41:11.585Z,222.00
2019-03-29T08:41:12.096Z,223.00
2019-03-29T08:41:12.598Z,223.00
2019-03-29T08:41:13.123Z,223.00
2019-03-29T08:41:13.626Z,225.00
2019-03-29T08:41:14.142Z,224.00
2019-03-29T08:41:14.652Z,223.00
2019-03-29T08:41:15.156Z,224.00
2019-03-29T08:41:15.649Z,224.00
2019-03-29T08:41:16.154Z,224.00
2019-03-29T08:41:16.647Z,224.00
2019-03-29T08:41:17.161Z,223.00
2019-03-29T08:41:17.665Z,223.00
2019-03-29T08:41:18.162Z,222.00
2019-03-29T08:41:18.652Z,224.00
2019-03-29T08:41:19.157Z,222.00
2019-03-29T08:41:19.662Z,224.00
2019-03-29T08:41:20.172Z,224.00
2019-03-29T08:41:20.677Z,224.00
2019-03-29T08:41:21.183Z,224.00
2019-03-29T08:41:21.690Z,224.00
2019-03-29T08:41:22.190Z,224.00
2019-03-29T08:41:22.693Z,224.00
2019-03-29T08:41:23.281Z,223.00
2019-03-29T08:41:23.823Z,224.00
2019-03-29T08:41:24.334Z,224.00
2019-03-29T08:41:24.832Z,223.00
2019-03-29T08:41:25.339Z,222.00
2019-03-29T08:41:25.851Z,223.00
2019-03-29T08:41:26.359Z,223.00
2019-03-29T08:41:26.868Z,224.00
2019-03-29T08:41:27.365Z,223.00
2019-03-29T08:41:27.925Z,224.00
2019-03-29T08:41:28.436Z,223.00
2019-03-29T08:41:28.931Z,223.00
2019-03-29T08:41:29.454Z,223.00
2019-03-29T08:41:29.965Z,223.00
2019-03-29T08:41:30.477Z,223.00
2019-03-29T08:41:30.984Z,224.00
2019-03-29T08:41:31.504Z,224.00
2019-03-29T08:41:31.999Z,223.00
2019-03-29T08:41:32.503Z,224.00
2019-03-29T08:41:33.004Z,223.00
2019-03-29T08:41:33.499Z,223.00
2019-03-29T08:41:33.998Z,223.00
2019-03-29T08:41:34.503Z,224.00
2019-03-29T08:41:34.998Z,223.00
2019-03-29T08:41:35.501Z,223.00
2019-03-29T08:41:35.998Z,224.00
2019-03-29T08:41:36.517Z,222.00
2019-03-29T08:41:37.024Z,223.00
2019-03-29T08:41:37.538Z,223.00
2019-03-29T08:41:38.048Z,223.00
2019-03-29T08:41:38.558Z,224.00
2019-03-29T08:41:39.053Z,223.00
2019-03-29T08:41:39.551Z,223.00
2019-03-29T08:41:40.048Z,222.00
2019-03-29T08:41:40.560Z,223.00
2019-03-29T08:41:41.078Z,223.00
2019-03-29T08:41:41.590Z,223.00
2019-03-29T08:41:42.088Z,224.00
2019-03-29T08:41:42.597Z,224.00
2019-03-29T08:41:43.091Z,224.00
2019-03-29T08:41:43.594Z,223.00
2019-03-29T08:41:44.096Z,223.00
2019-03-29T08:41:44.603Z,223.00
2019-03-29T08:41:59.055Z,223.00
2019-03-29T08:41:59.868Z,223.00
2019-03-29T08:42:00.269Z,223.00
2019-03-29T08:42:01.172Z,222.00
2019-03-29T08:42:01.675Z,223.00
2019-03-29T08:42:02.194Z,223.00
2019-03-29T08:42:02.719Z,222.00
2019-03-29T08:42:03.224Z,223.00
2019-03-29T08:42:03.766Z,223.00
2019-03-29T08:42:04.264Z,223.00
2019-03-29T08:42:04.770Z,223.00
2019-03-29T08:42:05.282Z,223.00
2019-03-29T08:42:05.797Z,224.00
2019-03-29T08:42:06.300Z,223.00
2019-03-29T08:42:06.797Z,223.00
2019-03-29T08:42:07.284Z,223.00
2019-03-29T08:42:07.781Z,224.00
2019-03-29T08:42:08.283Z,224.00
2019-03-29T08:42:08.795Z,223.00
2019-03-29T08:42:09.297Z,223.00
2019-03-29T08:42:09.812Z,223.00
2019-03-29T08:42:10.317Z,223.00
2019-03-29T08:42:10.823Z,224.00
2019-03-29T08:42:11.323Z,223.00
2019-03-29T08:42:11.831Z,223.00
2019-03-29T08:42:12.343Z,223.00
2019-03-29T08:42:12.851Z,223.00
2019-03-29T08:42:13.392Z,222.00
2019-03-29T08:42:13.897Z,223.00
2019-03-29T08:42:14.417Z,222.00
2019-03-29T08:42:18.289Z,221.00
2019-03-29T08:42:19.135Z,223.00
2019-03-29T08:42:19.638Z,223.00
2019-03-29T08:42:20.145Z,223.00
2019-03-29T08:42:20.649Z,222.00
2019-03-29T08:42:21.150Z,223.00
2019-03-29T08:42:21.645Z,223.00
2019-03-29T08:42:22.148Z,223.00
2019-03-29T08:42:22.651Z,223.00
2019-03-29T08:42:23.149Z,223.00
2019-03-29T08:42:23.646Z,222.00
2019-03-29T08:42:24.159Z,223.00
2019-03-29T08:42:24.687Z,223.00
2019-03-29T08:42:25.249Z,223.00
2019-03-29T08:42:25.757Z,221.00
2019-03-29T08:42:26.269Z,223.00
2019-03-29T08:42:26.820Z,223.00
2019-03-29T08:42:27.328Z,223.00
2019-03-29T08:42:27.834Z,223.00
2019-03-29T08:42:28.336Z,222.00
2019-03-29T08:42:28.854Z,222.00
2019-03-29T08:42:29.374Z,223.00
2019-03-29T08:42:29.879Z,222.00
2019-03-29T08:42:30.398Z,223.00
2019-03-29T08:42:30.901Z,223.00
2019-03-29T08:42:31.422Z,222.00
2019-03-29T08:42:31.948Z,222.00
2019-03-29T08:42:32.448Z,222.00
2019-03-29T08:42:32.949Z,222.00
2019-03-29T08:42:33.447Z,223.00
2019-03-29T08:42:33.947Z,223.00
2019-03-29T08:42:34.452Z,222.00
2019-03-29T08:42:34.947Z,222.00
2019-03-29T08:42:35.445Z,222.00
2019-03-29T08:42:35.955Z,222.00
2019-03-29T08:42:36.470Z,223.00
2019-03-29T08:42:36.975Z,223.00
2019-03-29T08:42:37.485Z,223.00
2019-03-29T08:42:38.003Z,222.00
2019-03-29T08:42:38.516Z,223.00
2019-03-29T08:42:39.021Z,223.00
2019-03-29T08:42:39.527Z,223.00
2019-03-29T08:42:40.029Z,223.00
2019-03-29T08:42:40.522Z,223.00
2019-03-29T08:42:41.018Z,222.00
2019-03-29T08:42:41.531Z,222.00
2019-03-29T08:42:42.044Z,223.00
2019-03-29T08:42:42.550Z,222.00
2019-03-29T08:42:43.059Z,222.00
2019-03-29T08:42:43.577Z,223.00
2019-03-29T08:42:44.093Z,222.00
2019-03-29T08:42:44.595Z,222.00
2019-03-29T08:42:45.094Z,222.00
2019-03-29T08:42:45.608Z,223.00
2019-03-29T08:42:46.105Z,222.00
2019-03-29T08:42:46.599Z,222.00
2019-03-29T08:42:47.109Z,223.00
2019-03-29T08:42:47.620Z,224.00
2019-03-29T08:42:48.123Z,223.00
2019-03-29T08:42:48.625Z,222.00
2019-03-29T08:42:49.129Z,223.00
2019-03-29T08:42:49.636Z,222.00
2019-03-29T08:42:50.184Z,222.00
2019-03-29T08:42:50.679Z,222.00
2019-03-29T08:42:51.172Z,222.00
2019-03-29T08:42:51.684Z,223.00
2019-03-29T08:42:52.193Z,222.00
2019-03-29T08:42:52.698Z,222.00
2019-03-29T08:42:53.212Z,222.00
2019-03-29T08:42:53.717Z,222.00
2019-03-29T08:42:54.224Z,222.00
2019-03-29T08:42:54.835Z,222.00
2019-03-29T08:42:55.347Z,222.00
2019-03-29T08:42:55.855Z,222.00
2019-03-29T08:42:56.372Z,222.00
2019-03-29T08:42:56.881Z,222.00
2019-03-29T08:42:57.410Z,222.00
2019-03-29T08:42:57.907Z,222.00
2019-03-29T08:42:58.429Z,222.00
2019-03-29T08:42:58.958Z,222.00
2019-03-29T08:42:59.489Z,221.00
2019-03-29T08:43:00.004Z,222.00
2019-03-29T08:43:00.502Z,222.00
2019-03-29T08:43:01.011Z,223.00
2019-03-29T08:43:01.540Z,221.00
2019-03-29T08:43:02.058Z,222.00
2019-03-29T08:43:02.550Z,222.00
2019-03-29T08:43:03.059Z,222.00
2019-03-29T08:43:03.560Z,222.00
2019-03-29T08:43:04.074Z,222.00
2019-03-29T08:43:04.622Z,222.00
2019-03-29T08:43:05.127Z,222.00
2019-03-29T08:43:05.633Z,222.00
2019-03-29T08:43:06.130Z,222.00
2019-03-29T08:43:06.632Z,222.00
2019-03-29T08:43:07.141Z,222.00
2019-03-29T08:43:07.665Z,222.00
2019-03-29T08:43:08.196Z,222.00
2019-03-29T08:43:08.708Z,222.00
2019-03-29T08:43:09.218Z,223.00
2019-03-29T08:43:09.740Z,222.00
2019-03-29T08:43:10.243Z,222.00
2019-03-29T08:43:10.742Z,222.00
2019-03-29T08:43:11.254Z,222.00
2019-03-29T08:43:11.783Z,222.00
2019-03-29T08:43:12.281Z,222.00
2019-03-29T08:43:12.812Z,221.00
2019-03-29T08:43:13.334Z,223.00
2019-03-29T08:43:13.857Z,222.00
2019-03-29T08:43:14.361Z,223.00
2019-03-29T08:43:14.877Z,223.00
2019-03-29T08:43:15.378Z,222.00
2019-03-29T08:43:15.960Z,222.00
2019-03-29T08:43:16.491Z,222.00
2019-03-29T08:43:17.010Z,222.00
2019-03-29T08:43:17.519Z,222.00
2019-03-29T08:43:18.021Z,222.00
2019-03-29T08:43:18.523Z,221.00
2019-03-29T08:43:19.025Z,222.00
2019-03-29T08:43:19.567Z,222.00
2019-03-29T08:43:20.071Z,221.00
2019-03-29T08:43:20.577Z,222.00
2019-03-29T08:43:21.155Z,222.00
2019-03-29T08:43:21.673Z,222.00
2019-03-29T08:43:22.182Z,222.00
2019-03-29T08:43:22.717Z,222.00
2019-03-29T08:43:23.229Z,222.00
2019-03-29T08:43:23.731Z,222.00
2019-03-29T08:43:24.228Z,222.00
2019-03-29T08:43:24.735Z,222.00
2019-03-29T08:43:25.235Z,222.00
2019-03-29T08:43:25.733Z,222.00
2019-03-29T08:43:26.229Z,223.00
2019-03-29T08:43:26.744Z,222.00
2019-03-29T08:43:27.261Z,222.00
2019-03-29T08:43:27.768Z,223.00
2019-03-29T08:43:28.275Z,222.00
2019-03-29T08:43:28.780Z,222.00
2019-03-29T08:43:29.289Z,222.00
2019-03-29T08:43:29.787Z,222.00
2019-03-29T08:43:30.293Z,222.00
2019-03-29T08:43:30.791Z,222.00
2019-03-29T08:43:31.284Z,222.00
2019-03-29T08:43:31.834Z,222.00
2019-03-29T08:43:32.333Z,222.00
2019-03-29T08:43:32.844Z,221.00
2019-03-29T08:43:33.383Z,222.00
2019-03-29T08:43:33.898Z,222.00
2019-03-29T08:43:34.405Z,222.00
2019-03-29T08:43:34.901Z,222.00
2019-03-29T08:43:35.434Z,223.00
2019-03-29T08:43:35.944Z,221.00
2019-03-29T08:43:36.450Z,221.00
2019-03-29T08:43:36.951Z,221.00
2019-03-29T08:43:37.490Z,221.00
2019-03-29T08:43:37.989Z,220.00
2019-03-29T08:43:38.517Z,220.00
2019-03-29T08:43:39.023Z,220.00
2019-03-29T08:43:39.605Z,220.00
2019-03-29T08:43:40.163Z,221.00
2019-03-29T08:43:40.665Z,221.00
2019-03-29T08:43:41.166Z,220.00
2019-03-29T08:43:41.690Z,221.00
2019-03-29T08:43:42.185Z,220.00
2019-03-29T08:43:42.703Z,222.00
2019-03-29T08:43:43.211Z,221.00
2019-03-29T08:43:43.735Z,222.00
2019-03-29T08:43:44.241Z,221.00
2019-03-29T08:43:44.755Z,221.00
2019-03-29T08:43:45.343Z,221.00
2019-03-29T08:43:45.874Z,221.00
2019-03-29T08:43:46.386Z,221.00
2019-03-29T08:43:46.896Z,221.00
2019-03-29T08:43:47.446Z,220.00
2019-03-29T08:43:47.951Z,221.00
2019-03-29T08:43:48.463Z,222.00
2019-03-29T08:43:48.979Z,221.00
2019-03-29T08:43:49.486Z,220.00
2019-03-29T08:43:49.984Z,221.00
2019-03-29T08:43:50.497Z,222.00
2019-03-29T08:43:51.010Z,221.00
2019-03-29T08:43:51.509Z,221.00
2019-03-29T08:43:52.028Z,221.00
2019-03-29T08:43:52.549Z,220.00
2019-03-29T08:43:53.056Z,220.00
2019-03-29T08:43:53.556Z,221.00
2019-03-29T08:43:54.067Z,221.00
2019-03-29T08:43:54.577Z,221.00
2019-03-29T08:43:55.104Z,221.00
2019-03-29T08:43:55.621Z,220.00
2019-03-29T08:43:56.123Z,221.00
2019-03-29T08:43:56.623Z,221.00
2019-03-29T08:43:57.162Z,221.00
2019-03-29T08:43:57.669Z,221.00
2019-03-29T08:43:58.196Z,223.00
2019-03-29T08:43:58.704Z,220.00
2019-03-29T08:43:59.202Z,220.00
2019-03-29T08:43:59.736Z,221.00
2019-03-29T08:44:00.234Z,221.00
2019-03-29T08:44:00.739Z,221.00
2019-03-29T08:44:01.249Z,221.00
2019-03-29T08:44:01.756Z,221.00
2019-03-29T08:44:02.257Z,220.00
2019-03-29T08:44:02.776Z,220.00
2019-03-29T08:44:03.344Z,221.00
2019-03-29T08:44:03.896Z,221.00
2019-03-29T08:44:04.459Z,221.00
2019-03-29T08:44:05.007Z,224.00
2019-03-29T08:44:05.553Z,220.00
2019-03-29T08:44:06.054Z,221.00
2019-03-29T08:44:06.561Z,221.00
2019-03-29T08:44:07.062Z,222.00
2019-03-29T08:44:07.600Z,221.00
2019-03-29T08:44:11.592Z,221.00
2019-03-29T08:44:12.470Z,221.00
2019-03-29T08:44:12.995Z,220.00
2019-03-29T08:44:13.507Z,221.00
2019-03-29T08:44:14.026Z,222.00
2019-03-29T08:44:14.562Z,221.00
2019-03-29T08:44:15.071Z,221.00
2019-03-29T08:44:15.591Z,221.00
2019-03-29T08:44:16.096Z,221.00
2019-03-29T08:44:16.610Z,221.00
2019-03-29T08:44:17.113Z,221.00
2019-03-29T08:44:17.615Z,220.00
2019-03-29T08:44:18.116Z,221.00
2019-03-29T08:44:18.622Z,221.00
2019-03-29T08:44:19.140Z,220.00
2019-03-29T08:44:19.636Z,220.00
2019-03-29T08:44:20.136Z,221.00
2019-03-29T08:44:20.647Z,221.00
2019-03-29T08:44:21.185Z,221.00
2019-03-29T08:44:21.694Z,221.00
2019-03-29T08:44:22.206Z,223.00
2019-03-29T08:44:22.715Z,221.00
2019-03-29T08:44:23.227Z,220.00
2019-03-29T08:44:23.734Z,221.00
2019-03-29T08:44:24.283Z,221.00
2019-03-29T08:44:24.811Z,221.00
2019-03-29T08:44:25.392Z,221.00
2019-03-29T08:44:25.909Z,221.00
2019-03-29T08:44:26.458Z,221.00
2019-03-29T08:44:26.955Z,220.00
2019-03-29T08:44:27.470Z,220.00
2019-03-29T08:44:27.977Z,220.00
2019-03-29T08:44:28.483Z,220.00
2019-03-29T08:44:28.999Z,220.00
2019-03-29T08:44:29.515Z,220.00
2019-03-29T08:44:30.102Z,220.00
2019-03-29T08:44:30.625Z,220.00
2019-03-29T08:44:31.139Z,221.00
2019-03-29T08:44:31.651Z,220.00
2019-03-29T08:44:32.162Z,220.00
2019-03-29T08:44:32.667Z,221.00
2019-03-29T08:44:33.200Z,222.00
2019-03-29T08:44:33.713Z,220.00
2019-03-29T08:44:34.217Z,221.00
2019-03-29T08:44:34.725Z,221.00
2019-03-29T08:44:35.234Z,221.00
2019-03-29T08:44:35.829Z,221.00
2019-03-29T08:44:36.337Z,221.00
2019-03-29T08:44:36.900Z,220.00
2019-03-29T08:44:37.411Z,220.00
2019-03-29T08:44:37.916Z,220.00
2019-03-29T08:44:38.426Z,220.00
2019-03-29T08:44:38.939Z,220.00
2019-03-29T08:44:39.439Z,221.00
2019-03-29T08:44:39.946Z,220.00
2019-03-29T08:44:40.452Z,221.00
2019-03-29T08:44:40.967Z,220.00
2019-03-29T08:44:41.487Z,220.00
2019-03-29T08:44:41.985Z,220.00
2019-03-29T08:44:42.487Z,220.00
2019-03-29T08:44:42.998Z,221.00
2019-03-29T08:44:43.514Z,221.00
2019-03-29T08:44:44.033Z,220.00
2019-03-29T08:44:44.539Z,220.00
2019-03-29T08:44:45.045Z,220.00
2019-03-29T08:44:45.556Z,220.00
2019-03-29T08:44:46.068Z,220.00
2019-03-29T08:44:46.615Z,220.00
2019-03-29T08:44:47.115Z,221.00
2019-03-29T08:44:47.624Z,220.00
2019-03-29T08:44:48.123Z,220.00
2019-03-29T08:44:48.621Z,220.00
2019-03-29T08:44:49.129Z,220.00
2019-03-29T08:44:49.632Z,220.00
2019-03-29T08:44:50.156Z,220.00
2019-03-29T08:44:50.676Z,220.00
2019-03-29T08:44:51.188Z,220.00
2019-03-29T08:44:51.697Z,221.00
2019-03-29T08:44:52.294Z,220.00
2019-03-29T08:44:52.823Z,220.00
2019-03-29T08:44:53.349Z,221.00
2019-03-29T08:44:53.860Z,220.00
2019-03-29T08:44:54.369Z,220.00
2019-03-29T08:44:54.871Z,220.00
2019-03-29T08:44:55.387Z,220.00
2019-03-29T08:44:55.889Z,220.00
2019-03-29T08:44:56.399Z,221.00
2019-03-29T08:44:56.909Z,221.00
2019-03-29T08:44:57.424Z,219.00
2019-03-29T08:44:57.950Z,220.00
2019-03-29T08:44:58.471Z,221.00
2019-03-29T08:44:58.972Z,220.00
2019-03-29T08:44:59.475Z,220.00
2019-03-29T08:45:00.001Z,220.00
2019-03-29T08:45:00.506Z,221.00
2019-03-29T08:45:01.031Z,221.00
2019-03-29T08:45:01.542Z,221.00
2019-03-29T08:45:02.092Z,221.00
2019-03-29T08:45:02.620Z,221.00
2019-03-29T08:45:03.141Z,221.00
2019-03-29T08:45:03.655Z,221.00
2019-03-29T08:45:04.271Z,220.00
2019-03-29T08:45:04.779Z,220.00
2019-03-29T08:45:05.285Z,220.00
2019-03-29T08:45:05.797Z,221.00
2019-03-29T08:45:06.332Z,220.00
2019-03-29T08:45:06.853Z,220.00
2019-03-29T08:45:07.365Z,219.00
2019-03-29T08:45:07.873Z,220.00
2019-03-29T08:45:08.375Z,220.00
2019-03-29T08:45:08.879Z,220.00
2019-03-29T08:45:09.401Z,220.00
2019-03-29T08:45:09.906Z,220.00
2019-03-29T08:45:10.435Z,219.00
2019-03-29T08:45:10.950Z,221.00
2019-03-29T08:45:11.439Z,222.00
2019-03-29T08:45:11.930Z,220.00
2019-03-29T08:45:12.426Z,220.00
2019-03-29T08:45:12.941Z,220.00
2019-03-29T08:45:13.436Z,220.00
2019-03-29T08:45:13.926Z,221.00
2019-03-29T08:45:14.434Z,220.00
2019-03-29T08:45:14.938Z,221.00
2019-03-29T08:45:15.436Z,220.00
2019-03-29T08:45:15.936Z,220.00
2019-03-29T08:45:16.453Z,220.00
2019-03-29T08:45:16.962Z,221.00
2019-03-29T08:45:17.481Z,221.00
2019-03-29T08:45:18.006Z,220.00
2019-03-29T08:45:18.496Z,220.00
2019-03-29T08:45:19.009Z,220.00
2019-03-29T08:45:19.529Z,220.00
2019-03-29T08:45:20.068Z,221.00
2019-03-29T08:45:20.589Z,221.00
2019-03-29T08:45:21.115Z,221.00
2019-03-29T08:45:21.620Z,220.00
2019-03-29T08:45:22.123Z,220.00
2019-03-29T08:45:22.626Z,221.00
2019-03-29T08:45:23.125Z,220.00
2019-03-29T08:45:23.636Z,220.00
2019-03-29T08:45:24.128Z,219.00
2019-03-29T08:45:24.637Z,222.00
2019-03-29T08:45:25.133Z,220.00
2019-03-29T08:45:25.643Z,220.00
2019-03-29T08:45:26.146Z,220.00
2019-03-29T08:45:26.650Z,220.00
2019-03-29T08:45:27.161Z,220.00
2019-03-29T08:45:27.667Z,219.00
2019-03-29T08:45:28.179Z,220.00
2019-03-29T08:45:28.685Z,220.00
2019-03-29T08:45:29.194Z,220.00
2019-03-29T08:45:29.702Z,221.00
2019-03-29T08:45:30.220Z,220.00
2019-03-29T08:45:30.842Z,222.00
2019-03-29T08:45:31.339Z,221.00
2019-03-29T08:45:31.847Z,221.00
2019-03-29T08:45:32.382Z,220.00
2019-03-29T08:45:32.921Z,220.00
2019-03-29T08:45:33.440Z,220.00
2019-03-29T08:45:33.945Z,220.00
2019-03-29T08:45:34.550Z,221.00
2019-03-29T08:45:35.058Z,220.00
2019-03-29T08:45:35.558Z,221.00
2019-03-29T08:45:36.086Z,220.00
2019-03-29T08:45:36.584Z,221.00
2019-03-29T08:45:37.092Z,219.00
2019-03-29T08:45:37.593Z,220.00
2019-03-29T08:45:38.088Z,220.00
2019-03-29T08:45:38.587Z,220.00
2019-03-29T08:45:39.094Z,220.00
2019-03-29T08:45:39.631Z,221.00
2019-03-29T08:45:40.144Z,221.00
2019-03-29T08:45:40.656Z,220.00
2019-03-29T08:45:41.174Z,220.00
2019-03-29T08:45:41.675Z,220.00
2019-03-29T08:45:42.220Z,220.00
2019-03-29T08:45:42.747Z,220.00
2019-03-29T08:45:43.259Z,220.00
2019-03-29T08:45:43.770Z,219.00
2019-03-29T08:45:44.282Z,220.00
2019-03-29T08:45:44.839Z,219.00
2019-03-29T08:45:45.359Z,220.00
2019-03-29T08:45:45.875Z,220.00
2019-03-29T08:45:46.384Z,220.00
2019-03-29T08:45:46.882Z,220.00
2019-03-29T08:45:47.389Z,220.00
2019-03-29T08:45:48.005Z,220.00
2019-03-29T08:45:48.506Z,221.00
2019-03-29T08:45:49.026Z,220.00
2019-03-29T08:45:49.540Z,220.00
2019-03-29T08:45:50.068Z,222.00
2019-03-29T08:45:50.581Z,220.00
2019-03-29T08:45:51.092Z,221.00
2019-03-29T08:45:51.584Z,220.00
2019-03-29T08:45:52.085Z,220.00
2019-03-29T08:45:52.594Z,221.00
2019-03-29T08:45:53.111Z,221.00
2019-03-29T08:45:53.636Z,220.00
2019-03-29T08:45:57.409Z,220.00
2019-03-29T08:45:58.346Z,220.00
2019-03-29T08:45:58.855Z,220.00
2019-03-29T08:45:59.369Z,220.00
2019-03-29T08:45:59.900Z,219.00
2019-03-29T08:46:00.400Z,220.00
2019-03-29T08:46:00.898Z,220.00
2019-03-29T08:46:01.414Z,220.00